Historique des stations

Station météo de Saint-Laurent-Nouan

Altitude de la station : 82 m







Données météorologiques pour le 20/01/2022
Date
Heure
Températures Humidité Point de rosée Vitesse
du vent
Direction Rafales Windchill Pression Pluviométrie
Cumul
Date
Heure
Températures Humidité Point de rosée Vitesse
du vent
Direction Rafales Windchill Pression Pluviométrie
Cumul
20/01/2022 15:026.8 °C83 %3.9 °C2 km/hNNO5 km/h6.7 1033 hPa0.6 mm
20/01/2022 14:596.8 °C83 %3.9 °C2 km/hNNE11 km/h6.7 1033 hPa0.6 mm
20/01/2022 14:476.9 °C82 %3.9 °C2 km/hNNE6 km/h7.2 1033 hPa0.6 mm
20/01/2022 14:447.0 °C82 %3.9 °C2 km/hNNO11 km/h7.2 1033 hPa0.6 mm
20/01/2022 14:337.2 °C81 %4.4 °C2 km/hNNE6 km/h7.2 1033 hPa0.6 mm
20/01/2022 14:297.3 °C81 %4.4 °C-N11 km/h7.2 1033 hPa0.6 mm
20/01/2022 14:187.2 °C82 %4.4 °C3 km/hNO8 km/h6.7 1033 hPa0.6 mm
20/01/2022 14:147.1 °C82 %4.4 °C2 km/hN11 km/h7.2 1033 hPa0.6 mm
20/01/2022 14:036.9 °C83 %4.4 °C-N5 km/h7.2 1033 hPa0.6 mm
20/01/2022 13:596.8 °C83 %3.9 °C3 km/hNNO11 km/h6.1 1033 hPa0.6 mm
20/01/2022 13:486.7 °C84 %4.4 °C2 km/hN6 km/h6.7 1033 hPa0.6 mm
20/01/2022 13:446.8 °C84 %4.4 °C2 km/hNNE11 km/h6.7 1033 hPa0.6 mm
20/01/2022 13:336.8 °C84 %4.4 °C2 km/hE10 km/h6.7 1033 hPa0.6 mm
20/01/2022 13:296.8 °C83 %3.9 °C2 km/hNNO11 km/h6.7 1033 hPa0.6 mm
20/01/2022 13:186.8 °C82 %3.9 °C8 km/hN8 km/h5.0 1033 hPa0.6 mm
20/01/2022 13:146.8 °C82 %3.9 °C2 km/hNO11 km/h6.7 1033 hPa0.6 mm
20/01/2022 13:037.1 °C83 %4.4 °C2 km/hN8 km/h7.2 1033 hPa0.6 mm
20/01/2022 12:596.9 °C82 %3.9 °C6 km/hNNE11 km/h6.1 1033 hPa0.6 mm
20/01/2022 12:486.6 °C83 %3.9 °C2 km/hNE5 km/h6.7 1033 hPa0.6 mm
20/01/2022 12:446.6 °C83 %3.9 °C-NE11 km/h6.7 1033 hPa0.6 mm
20/01/2022 12:336.4 °C84 %3.9 °C2 km/hNNE3 km/h6.7 1034 hPa0.6 mm
20/01/2022 12:296.4 °C84 %3.9 °C-NNE11 km/h6.7 1034 hPa0.6 mm
20/01/2022 12:186.5 °C84 %3.9 °C2 km/hNE6 km/h6.7 1034 hPa0.6 mm
20/01/2022 12:146.3 °C85 %3.9 °C-NNO11 km/h6.1 1034 hPa0.6 mm
20/01/2022 12:036.1 °C84 %3.3 °C-ENE8 km/h6.1 1034 hPa0.6 mm
20/01/2022 12:006.1 °C85 %3.9 °C2 km/hE11 km/h6.1 1034 hPa0.6 mm
20/01/2022 11:485.8 °C85 %3.3 °C2 km/hE6 km/h5.6 1034 hPa0.6 mm
20/01/2022 11:455.8 °C86 %3.9 °C-E11 km/h5.6 1034 hPa0.6 mm
20/01/2022 11:335.4 °C86 %3.3 °C2 km/hNNE6 km/h5.6 1034 hPa0.6 mm
20/01/2022 11:305.3 °C86 %3.3 °C-ENE11 km/h5.6 1034 hPa0.6 mm
20/01/2022 11:185.1 °C88 %3.3 °C2 km/hENE5 km/h5.0 1033 hPa0.6 mm
20/01/2022 11:154.8 °C88 %3.3 °C2 km/hENE11 km/h5.0 1033 hPa0.6 mm
20/01/2022 11:034.4 °C89 %2.8 °C---4.4 1033 hPa0.6 mm
20/01/2022 11:004.3 °C89 %2.8 °C-ENE11 km/h4.4 1033 hPa0.6 mm
20/01/2022 10:483.8 °C90 %2.2 °C-ENE3 km/h3.9 1034 hPa0.6 mm
20/01/2022 10:453.7 °C90 %2.2 °C-ENE11 km/h3.9 1034 hPa0.6 mm
20/01/2022 10:333.3 °C91 %2.2 °C2 km/hENE5 km/h2.8 1034 hPa0.6 mm
20/01/2022 10:303.2 °C91 %1.7 °C2 km/hENE11 km/h2.8 1034 hPa0.6 mm
20/01/2022 10:182.8 °C92 %1.7 °C-NNE3 km/h2.8 1034 hPa0.6 mm
20/01/2022 10:152.7 °C92 %1.7 °C3 km/hNE11 km/h1.7 1034 hPa0.6 mm
20/01/2022 10:032.4 °C92 %1.1 °C2 km/hNE3 km/h1.7 1033 hPa0.6 mm
20/01/2022 10:002.3 °C92 %1.1 °C-NE11 km/h2.2 1033 hPa0.6 mm
20/01/2022 09:482.2 °C92 %1.1 °C-ENE6 km/h2.2 1033 hPa0.6 mm
20/01/2022 09:442.2 °C92 %1.1 °C2 km/hENE11 km/h1.7 1033 hPa0.6 mm
20/01/2022 09:322.0 °C92 %1.1 °C-ENE6 km/h2.2 1033 hPa0.6 mm
20/01/2022 09:292.0 °C92 %1.1 °C3 km/hNE11 km/h1.1 1033 hPa0.6 mm
20/01/2022 09:172.1 °C92 %1.1 °C-NE5 km/h2.2 1033 hPa0.6 mm
20/01/2022 09:142.1 °C92 %1.1 °C3 km/hNE11 km/h1.1 1033 hPa0.6 mm
20/01/2022 09:022.1 °C92 %1.1 °C-ENE3 km/h2.2 1032 hPa0.6 mm
20/01/2022 08:592.1 °C92 %1.1 °C3 km/hN11 km/h1.1 1032 hPa0.6 mm
20/01/2022 08:472.2 °C92 %1.1 °C-E6 km/h2.2 1032 hPa0.6 mm
20/01/2022 08:442.3 °C92 %1.1 °C-E11 km/h2.2 1032 hPa0.6 mm
20/01/2022 08:332.4 °C92 %1.1 °C-ENE5 km/h2.2 1032 hPa0.6 mm
20/01/2022 08:292.5 °C92 %1.1 °C2 km/hENE11 km/h2.2 1032 hPa0.6 mm
20/01/2022 08:172.7 °C92 %1.7 °C-NNE8 km/h2.8 1032 hPa0.6 mm
20/01/2022 08:142.8 °C92 %1.7 °C-E11 km/h2.8 1032 hPa0.6 mm
20/01/2022 08:023.1 °C92 %1.7 °C-E6 km/h3.3 1032 hPa0.6 mm
20/01/2022 07:593.2 °C92 %2.2 °C2 km/hE11 km/h2.8 1031 hPa0.6 mm
20/01/2022 07:483.4 °C92 %2.2 °C-ENE5 km/h3.3 1031 hPa0.6 mm
20/01/2022 07:443.6 °C92 %2.2 °C-NE11 km/h3.3 1031 hPa0.6 mm
20/01/2022 07:333.8 °C92 %2.8 °C2 km/hN5 km/h3.3 1031 hPa0.6 mm
20/01/2022 07:293.8 °C92 %2.8 °C-NO11 km/h3.9 1031 hPa0.6 mm
20/01/2022 07:184.0 °C92 %2.8 °C2 km/hENE3 km/h3.3 1031 hPa0.6 mm
20/01/2022 07:144.1 °C92 %2.8 °C-ENE11 km/h3.9 1031 hPa0.6 mm
20/01/2022 07:034.2 °C92 %2.8 °C-NE5 km/h4.4 1031 hPa0.6 mm
20/01/2022 07:004.2 °C92 %3.3 °C-NE11 km/h4.4 1031 hPa0.6 mm
20/01/2022 06:484.2 °C92 %3.3 °C2 km/hESE3 km/h3.9 1031 hPa0.6 mm
20/01/2022 06:454.2 °C92 %3.3 °C2 km/hENE11 km/h3.9 1031 hPa0.6 mm
20/01/2022 06:334.3 °C92 %3.3 °C2 km/hENE5 km/h3.9 1031 hPa0.6 mm
20/01/2022 06:304.3 °C92 %3.3 °C-ENE11 km/h4.4 1031 hPa0.6 mm
20/01/2022 06:174.5 °C92 %3.3 °C3 km/hENE10 km/h3.3 1031 hPa0.6 mm
20/01/2022 06:154.6 °C92 %3.3 °C3 km/hE11 km/h3.3 1031 hPa0.6 mm
20/01/2022 06:034.7 °C92 %3.3 °C2 km/hESE5 km/h5.0 1031 hPa0.6 mm
20/01/2022 06:004.8 °C92 %3.9 °C2 km/hN11 km/h5.0 1031 hPa0.6 mm
20/01/2022 05:485.1 °C93 %3.9 °C-NNE5 km/h5.0 1031 hPa0.6 mm
20/01/2022 05:455.1 °C93 %3.9 °C-NNE11 km/h5.0 1031 hPa0.6 mm
20/01/2022 05:335.2 °C93 %4.4 °C5 km/hN10 km/h4.4 1031 hPa0.6 mm
20/01/2022 05:305.3 °C93 %4.4 °C2 km/hN11 km/h5.6 1031 hPa0.6 mm
20/01/2022 05:185.2 °C93 %4.4 °C3 km/hN10 km/h4.4 1030 hPa0.6 mm
20/01/2022 05:155.2 °C93 %4.4 °C5 km/hN11 km/h4.4 1030 hPa0.6 mm
20/01/2022 05:035.2 °C93 %4.4 °C-N6 km/h5.0 1030 hPa0.6 mm
20/01/2022 05:005.1 °C93 %3.9 °C-SE11 km/h5.0 1030 hPa0.6 mm
20/01/2022 04:485.2 °C93 %4.4 °C---5.0 1030 hPa0.6 mm
20/01/2022 04:455.2 °C93 %4.4 °C-NNO11 km/h5.0 1030 hPa0.6 mm
20/01/2022 04:335.2 °C93 %4.4 °C-NNO5 km/h5.0 1030 hPa0.6 mm
20/01/2022 04:305.2 °C93 %4.4 °C2 km/hNO11 km/h5.0 1030 hPa0.6 mm
20/01/2022 04:185.2 °C93 %4.4 °C---5.0 1030 hPa0.6 mm
20/01/2022 04:155.2 °C93 %4.4 °C-NO11 km/h5.0 1030 hPa0.6 mm
20/01/2022 04:035.1 °C93 %3.9 °C2 km/hSSE5 km/h5.0 1031 hPa0.6 mm
20/01/2022 04:005.1 °C93 %3.9 °C3 km/hSSE11 km/h4.4 1030 hPa0.6 mm
20/01/2022 03:485.1 °C93 %3.9 °C2 km/hONO3 km/h5.0 1031 hPa0.6 mm
20/01/2022 03:455.1 °C93 %3.9 °C-ONO11 km/h5.0 1030 hPa0.6 mm
20/01/2022 03:335.1 °C93 %3.9 °C3 km/hONO3 km/h4.4 1030 hPa0.6 mm
20/01/2022 03:305.1 °C93 %3.9 °C-ONO11 km/h5.0 1030 hPa0.6 mm
20/01/2022 03:185.1 °C93 %3.9 °C-ONO3 km/h5.0 1030 hPa0.6 mm
20/01/2022 03:155.1 °C93 %3.9 °C2 km/hONO11 km/h5.0 1030 hPa0.6 mm
20/01/2022 03:035.1 °C93 %3.9 °C5 km/hO5 km/h4.4 1030 hPa0.6 mm
20/01/2022 03:005.1 °C93 %3.9 °C-ONO11 km/h5.0 1030 hPa0.6 mm
20/01/2022 02:485.1 °C93 %3.9 °C2 km/hSO6 km/h5.0 1030 hPa0.6 mm
20/01/2022 02:455.1 °C93 %3.9 °C2 km/hSE11 km/h5.0 1030 hPa0.6 mm
20/01/2022 02:335.1 °C92 %3.9 °C2 km/hO2 km/h5.0 1030 hPa0.6 mm
20/01/2022 02:305.1 °C92 %3.9 °C-O11 km/h5.0 1030 hPa0.6 mm
20/01/2022 02:185.1 °C92 %3.9 °C-O10 km/h5.0 1030 hPa0.6 mm
20/01/2022 02:155.1 °C92 %3.9 °C3 km/hO11 km/h4.4 1030 hPa0.6 mm
20/01/2022 02:035.1 °C92 %3.9 °C5 km/hO10 km/h4.4 1030 hPa0.6 mm
20/01/2022 02:005.1 °C92 %3.9 °C5 km/hONO11 km/h4.4 1030 hPa0.6 mm
20/01/2022 01:485.1 °C92 %3.9 °C3 km/hO10 km/h4.4 1030 hPa0.4 mm
20/01/2022 01:455.1 °C92 %3.9 °C5 km/hO10 km/h4.4 1030 hPa0.4 mm
20/01/2022 01:335.0 °C92 %3.9 °C2 km/hO6 km/h5.0 1030 hPa0.4 mm
20/01/2022 01:305.0 °C92 %3.9 °C3 km/hO6 km/h4.4 1030 hPa0.4 mm
20/01/2022 01:184.9 °C92 %3.9 °C3 km/hO6 km/h4.4 1030 hPa0.4 mm
20/01/2022 01:154.9 °C92 %3.9 °C2 km/hO6 km/h5.0 1030 hPa0.4 mm
20/01/2022 01:034.9 °C92 %3.9 °C3 km/hO6 km/h4.4 1030 hPa0.2 mm
20/01/2022 00:594.9 °C92 %3.9 °C3 km/hO6 km/h4.4 1030 hPa0.2 mm
20/01/2022 00:474.8 °C92 %3.9 °C3 km/hOSO5 km/h4.4 1030 hPa0.2 mm
20/01/2022 00:444.8 °C92 %3.9 °C2 km/hOSO5 km/h5.0 1030 hPa0.2 mm
20/01/2022 00:324.8 °C92 %3.9 °C-SO3 km/h5.0 1030 hPa0.2 mm
20/01/2022 00:294.8 °C92 %3.9 °C2 km/hSO5 km/h5.0 1030 hPa0.2 mm
20/01/2022 00:174.8 °C92 %3.9 °C-SO5 km/h5.0 1030 hPa-
20/01/2022 00:144.8 °C92 %3.9 °C2 km/hSO5 km/h5.0 1030 hPa-
20/01/2022 00:024.8 °C92 %3.9 °C-O5 km/h5.0 1030 hPa-


Minima :

Température : 2.0 °C
Humidité : 81 %
Point de rosée : 1.1 °C
Vent moyen : 2 km/h
Windchill : 1.1
Pression atm. : 1030 hPa
Maxima :

Température : 7.3 °C
Humidité : 93 %
Point de rosée : 4.4 °C
Vent moyen : 8 km/h
Windchill : 7.2
Pression atm. : 1034 hPa
Rafales max : 11 km/h
Cumul de pluie sur 24H : 0.6 mm

Saint-Laurent-Nouan est une commune du département Loir-et-Cher (41).
La station météorologique du réseau de l'association la plus proche de Saint-Laurent-Nouan est celle de Yvoy-le-Marron



Icône Facebook Association Météo Centre Icône Twitter Association Météo Centre Icône Chaîne Youtube Association Météo Centre Icône contact Association Météo Centre Icône Insta Association Météo Centre